Terminal Aerodrome Forecast
Issued by NWS

Home | Current Version | Previous Version | Text Only | Print | Product List | Glossary On
Versions: 1 2 3 4 5 6 7 8 9 10 11 12 13 14 15 16 17 18 19 20 21 22 23 24 25 26 27 28 29 30 31
000
FTUS43 KGRB 231729
TAFATW
TAF
KATW 231729Z 2318/2418 02012KT P6SM BKN020
     FM240000 05008KT P6SM SCT020 BKN050
     FM240500 04012KT 6SM -SN OVC020
     FM240800 03018G28KT 3SM -SN OVC012
     FM241100 02019G30KT 2SM -SNPL OVC007
     FM241400 03022G32KT 1 1/2SM -FZRA BR OVC008=

USA.gov is the U.S. government's official web portal to all federal, state and local government web resources and services.